Terminal Aerodrome Forecast
Issued by NWS Charleston, WV

Current Version | Previous Version | Graphics & Text | Print | Product List | Glossary On
Versions: 1 2 3 4 5 6 7 8 9 10 11 12 13 14 15 16 17 18 19 20 21 22 23 24 25 26
000
FTUS41 KRLX 270258 AAA
TAFPKB
TAF AMD
KPKB 270258Z 2703/2724 VRB03KT 6SM BR SCT050 OVC070
     FM270600 01004KT 5SM -DZ BR OVC015
     FM270900 03005KT 2SM BR BKN008
     FM271200 02005KT P6SM SCT008 BKN015
     FM271500 02004KT P6SM BKN020=

USA.gov is the U.S. government's official web portal to all federal, state and local government web resources and services.